Flight Track Log - Related Links

Times and Time Zones

All times are in EST time to prevent confusion due to time zone crossing. See the XOJ549 flight status page for this flight to view local times or setup timezone preferences in your user account.

Time Position Orientation Groundspeed Altitude Reporting Facility
EST Latitude Longitude Course Direction KTS MPH feet Rate Location/Type
Thu 10:58:05 AM 41.0833 -73.8167 270° West 243 280 4,400  Level New York TRACON
Thu 10:59:05 AM 41.0667 -73.9000 255° West 258 297 7,000 2,900 Climbing New York TRACON
Thu 11:00:05 AM 41.0167 -73.9833 232° Southwest 261 300 10,200 3,238 Climbing New York TRACON
Thu 11:01:11 AM 40.9667 -74.0667 232° Southwest 303 349 13,800 2,400 Climbing New York TRACON
Thu 11:02:05 AM 40.9500 -74.1667 258° West 306 352 15,000 1,000 Climbing New York TRACON
Thu 11:03:11 AM 40.9500 -74.3000 270° West 318 366 15,800 940 Climbing New York TRACON
Thu 11:04:19 AM 40.9467 -74.4275 268° West 332 382 17,100 609 Climbing New York Center
Thu 11:05:19 AM 40.9411 -74.5372 266° West 332 382 17,100 750 Level New York Center
Thu 11:06:19 AM 40.9353 -74.6550 266° West 332 382 18,600 2,400 Climbing New York Center
Thu 11:07:19 AM 40.9231 -74.7667 262° West 321 369 21,900 2,876 Climbing New York Center
Thu 11:08:20 AM 40.9050 -74.8728 257° West 314 361 24,400 2,600 Climbing New York Center
Thu 11:09:19 AM 40.8867 -74.9814 257° West 309 356 27,100 2,420 Climbing New York Center
Thu 11:10:19 AM 40.8703 -75.0875 258° West 309 356 29,200 1,950 Climbing New York Center
Thu 11:11:19 AM 40.8517 -75.1961 257° West 309 356 31,000 1,850 Climbing New York Center
Thu 11:12:19 AM 40.8308 -75.3044 256° West 309 356 32,900 1,700 Climbing New York Center
Thu 11:13:19 AM 40.8122 -75.4100 257° West 309 356 34,400 1,450 Climbing New York Center
Thu 11:14:19 AM 40.7956 -75.5158 258° West 304 350 35,800 1,250 Climbing New York Center
Thu 11:15:19 AM 40.7747 -75.6186 255° West 298 343 36,900 1,150 Climbing New York Center
Thu 11:16:19 AM 40.7558 -75.7214 256° West 298 343 38,100 1,100 Climbing New York Center
Thu 11:17:19 AM 40.7389 -75.8242 258° West 298 343 39,100 750 Climbing New York Center
Thu 11:18:19 AM 40.7178 -75.9267 255° West 298 343 39,600 496 Climbing New York Center
Thu 11:19:20 AM 40.7003 -76.0431 259° West 298 343 40,100 450 Climbing New York Center
Thu 11:20:19 AM 40.6808 -76.1511 257° West 298 343 40,500 300 Climbing New York Center
Thu 11:21:20 AM 40.6650 -76.2647 260° West 305 351 40,700 250 Climbing New York Center
Thu 11:22:19 AM 40.6786 -76.3781 279° West 311 358 41,000 353 Climbing New York Center
Thu 11:23:19 AM 40.6936 -76.4969 279° West 317 365 41,400 450 Climbing New York Center
Thu 11:24:19 AM 40.7106 -76.6189 280° West 322 371 41,900 550 Climbing New York Center
Thu 11:25:19 AM 40.7236 -76.7325 279° West 332 382 42,500 550 Climbing New York Center
Thu 11:26:19 AM 40.7367 -76.8486 278° West 332 382 43,000 250 Climbing New York Center
Thu 11:27:19 AM 40.7492 -76.9647 278° West 332 382 43,000  Level New York Center
Thu 11:28:19 AM 40.7639 -77.0811 280° West 332 382 43,000  Level New York Center
Thu 11:29:19 AM 40.7764 -77.1975 278° West 327 376 43,000  Level New York Center
Thu 11:30:19 AM 40.7931 -77.3142 281° West 327 376 43,000  Level New York Center
Thu 11:31:19 AM 40.8039 -77.4194 278° West 327 376 43,000  Level New York Center
Thu 11:33:05 AM 40.8281 -77.6300 279° West 334 384 43,000  Level Cleveland Center
Thu 11:34:07 AM 40.8414 -77.7508 278° West 334 384 43,000  Level Cleveland Center
Thu 11:35:09 AM 40.8572 -77.8958 278° West 333 383 43,000  Level Cleveland Center
Thu 11:36:10 AM 40.8706 -78.0172 278° West 334 384 43,000  Level Cleveland Center
Thu 11:37:12 AM 40.8839 -78.1375 278° West 332 382 43,000  Level Cleveland Center
Thu 11:38:14 AM 40.8978 -78.2642 278° West 338 389 43,000  Level Cleveland Center
Thu 11:39:15 AM 40.9100 -78.3842 278° West 332 382 43,000  Level Cleveland Center
Thu 11:40:17 AM 40.9228 -78.5072 278° West 337 388 43,000  Level Cleveland Center
Thu 11:41:19 AM 40.9361 -78.6300 278° West 338 389 43,000  Level Cleveland Center
Thu 11:42:21 AM 40.9467 -78.7486 277° West 333 383 43,000  Level Cleveland Center
Thu 11:43:22 AM 40.9619 -78.8942 278° West 335 386 43,000  Level Cleveland Center
Thu 11:44:24 AM 40.9742 -79.0156 278° West 336 387 43,000  Level Cleveland Center
Thu 11:45:26 AM 40.9861 -79.1353 278° West 332 382 43,000  Level Cleveland Center
Thu 11:46:27 AM 40.9964 -79.2553 277° West 331 381 43,000  Level Cleveland Center
Thu 11:47:29 AM 41.0097 -79.3753 278° West 332 382 43,000  Level Cleveland Center
Thu 11:48:31 AM 41.0197 -79.4969 276° West 336 387 43,000  Level Cleveland Center
Thu 11:49:32 AM 41.0317 -79.6178 278° West 335 386 43,000  Level Cleveland Center
Thu 11:50:34 AM 41.0453 -79.7644 277° West 335 386 43,000  Level Cleveland Center
Thu 11:51:36 AM 41.0561 -79.8864 277° West 338 389 43,000  Level Cleveland Center
Thu 11:52:38 AM 41.0675 -80.0072 277° West 334 384 43,000  Level Cleveland Center
Thu 11:53:39 AM 41.0783 -80.1297 277° West 336 387 43,000  Level Cleveland Center
Thu 11:54:41 AM 41.0897 -80.2536 277° West 339 390 43,000  Level Cleveland Center
Thu 11:55:43 AM 41.0994 -80.3753 276° West 336 387 43,000  Level Cleveland Center
Thu 11:56:44 AM 41.1131 -80.5236 277° West 339 390 43,000  Level Cleveland Center
Thu 11:57:46 AM 41.1233 -80.6469 276° West 339 390 43,000  Level Cleveland Center
Thu 11:58:48 AM 41.1331 -80.7608 277° West 340 391 43,000  Level Cleveland Center
Thu 11:59:49 AM 41.1450 -80.9067 276° West 338 389 43,000  Level Cleveland Center
Thu 12:00:51 PM 41.1553 -81.0328 276° West 340 391 43,000  Level Cleveland Center
Thu 12:01:52 PM 41.1656 -81.1586 276° West 339 390 43,000  Level Cleveland Center
Thu 12:02:54 PM 41.1753 -81.2842 276° West 339 390 43,000  Level Cleveland Center
Thu 12:03:56 PM 41.1853 -81.4158 276° West 339 390 43,000  Level Cleveland Center
Thu 12:04:57 PM 41.1953 -81.5419 276° West 343 395 43,000  Level Cleveland Center
Thu 12:05:59 PM 41.2050 -81.6647 276° West 337 388 43,000  Level Cleveland Center
Thu 12:07:00 PM 41.2144 -81.7883 276° West 338 389 43,000  Level Cleveland Center
Thu 12:08:02 PM 41.2239 -81.9122 276° West 339 390 43,000  Level Cleveland Center
Thu 12:09:04 PM 41.2325 -82.0372 275° West 341 392 43,000  Level Cleveland Center
Thu 12:10:05 PM 41.2417 -82.1733 275° West 340 391 43,000  Level Cleveland Center
Thu 12:11:07 PM 41.2508 -82.2986 276° West 338 389 43,000  Level Cleveland Center
Thu 12:12:09 PM 41.2586 -82.4250 275° West 340 391 43,000  Level Cleveland Center
Thu 12:13:10 PM 41.2675 -82.5508 275° West 340 391 43,000  Level Cleveland Center
Thu 12:14:12 PM 41.2764 -82.6761 275° West 337 388 43,000  Level Cleveland Center
Thu 12:15:14 PM 41.2856 -82.8247 275° West 342 394 43,000  Level Cleveland Center
Thu 12:16:15 PM 41.2947 -82.9506 276° West 340 391 43,000  Level Cleveland Center
Thu 12:17:17 PM 41.3017 -83.0775 274° West 340 391 43,000  Level Cleveland Center
Thu 12:18:19 PM 41.3106 -83.2089 275° West 344 396 43,000  Level Cleveland Center
Thu 12:19:20 PM 41.3183 -83.3358 275° West 344 396 43,000  Level Cleveland Center
Thu 12:20:22 PM 41.3258 -83.4633 275° West 346 398 43,000  Level Cleveland Center
Thu 12:21:24 PM 41.3322 -83.5928 274° West 349 402 43,000  Level Cleveland Center
Thu 12:22:26 PM 41.3403 -83.7200 275° West 347 399 43,000  Level Cleveland Center
Thu 12:23:27 PM 41.3478 -83.8483 274° West 348 400 43,000  Level Cleveland Center
Thu 12:24:29 PM 41.3544 -83.9758 274° West 345 397 43,000  Level Cleveland Center
Thu 12:25:22 PM 41.3617 -84.0889 275° West 345 397 43,000  Level Chicago Center
Thu 12:26:23 PM 41.3672 -84.2197 273° West 353 406 43,000  Level Chicago Center
Thu 12:27:25 PM 41.3761 -84.3739 274° West 350 403 43,000  Level Chicago Center
Thu 12:28:28 PM 41.3817 -84.5022 273° West 348 400 43,000  Level Chicago Center
Thu 12:29:29 PM 41.3881 -84.6319 274° West 351 404 43,000  Level Chicago Center
Thu 12:30:31 PM 41.3944 -84.7603 274° West 349 402 43,000  Level Chicago Center
Thu 12:31:32 PM 41.4006 -84.8900 274° West 350 403 43,000  Level Chicago Center
Thu 12:32:34 PM 41.4067 -85.0197 274° West 350 403 43,000  Level Chicago Center
Thu 12:33:36 PM 41.4131 -85.1489 274° West 349 402 43,000  Level Chicago Center
Thu 12:34:38 PM 41.4183 -85.2797 273° West 352 405 43,000  Level Chicago Center
Thu 12:35:40 PM 41.4247 -85.4381 273° West 352 405 43,000  Level Chicago Center
Thu 12:36:41 PM 41.4306 -85.5692 273° West 352 405 43,000  Level Chicago Center
Thu 12:37:43 PM 41.4350 -85.7011 273° West 354 407 43,000  Level Chicago Center
Thu 12:38:45 PM 41.4400 -85.8328 273° West 355 409 43,000  Level Chicago Center
Thu 12:39:47 PM 41.4456 -85.9636 273° West 352 405 43,000  Level Chicago Center
Thu 12:40:49 PM 41.4503 -86.0936 273° West 351 404 43,000  Level Chicago Center
Thu 12:41:50 PM 41.4553 -86.2242 273° West 352 405 43,000  Level Chicago Center
Thu 12:42:52 PM 41.4606 -86.3539 273° West 351 404 43,000  Level Chicago Center
Thu 12:43:54 PM 41.4644 -86.5097 272° West 351 404 43,000  Level Chicago Center
Thu 12:44:56 PM 41.4683 -86.6408 272° West 354 407 43,000  Level Chicago Center
Thu 12:45:58 PM 41.4719 -86.7608 272° West 352 405 43,000  Level Chicago Center
Thu 12:47:00 PM 41.4767 -86.9186 272° West 354 407 43,000  Level Chicago Center
Thu 12:48:02 PM 41.4808 -87.0494 272° West 354 407 43,000  Level Chicago Center
Thu 12:49:03 PM 41.4844 -87.1803 272° West 354 407 43,000  Level Chicago Center
Thu 12:50:05 PM 41.4881 -87.3122 272° West 354 407 43,000  Level Chicago Center
Thu 12:51:07 PM 41.4911 -87.4433 272° West 355 409 43,000  Level Chicago Center
Thu 12:52:09 PM 41.4947 -87.5750 272° West 356 410 43,000  Level Chicago Center
Thu 12:53:11 PM 41.4972 -87.7078 271° West 359 413 43,000  Level Chicago Center
Thu 12:54:13 PM 41.5003 -87.8669 272° West 360 414 43,000  Level Chicago Center
Thu 12:55:15 PM 41.5022 -87.9811 271° West 360 414 43,000  Level Chicago Center
Thu 12:56:16 PM 41.5072 -88.1428 272° West 364 419 43,000  Level Chicago Center
Thu 12:57:18 PM 41.5081 -88.2550 271° West 356 410 43,000  Level Chicago Center
Thu 12:58:20 PM 41.5106 -88.4156 271° West 360 414 43,000  Level Chicago Center
Thu 12:59:22 PM 41.5136 -88.5522 272° West 367 422 43,000  Level Chicago Center
Thu 01:00:24 PM 41.5156 -88.6872 271° West 367 422 43,000  Level Chicago Center
Thu 01:01:25 PM 41.5175 -88.8222 271° West 366 421 43,000  Level Chicago Center
Thu 01:02:27 PM 41.5181 -88.9581 270° West 367 422 43,000  Level Chicago Center
Thu 01:03:29 PM 41.5192 -89.0958 271° West 370 426 43,000  Level Chicago Center
Thu 01:04:31 PM 41.5219 -89.2525 271° West 372 428 43,000  Level Chicago Center
Thu 01:05:33 PM 41.5225 -89.3911 270° West 374 430 43,000  Level Chicago Center
Thu 01:06:34 PM 41.5239 -89.5261 271° West 371 427 43,000  Level Chicago Center
Thu 01:07:36 PM 41.5261 -89.6650 271° West 374 430 43,000  Level Chicago Center
Thu 01:08:38 PM 41.5264 -89.8022 270° West 374 430 43,000  Level Chicago Center
Thu 01:09:40 PM 41.5264 -89.9661 270° West 371 427 43,000  Level Chicago Center
Thu 01:10:41 PM 41.5278 -90.1028 271° West 371 427 43,000  Level Chicago Center
Thu 01:11:43 PM 41.5281 -90.2403 270° West 372 428 43,000  Level Chicago Center
Thu 01:12:45 PM 41.5286 -90.3767 270° West 371 427 43,000  Level Chicago Center
Thu 01:13:46 PM 41.5272 -90.5150 269° West 374 430 43,000  Level Chicago Center
Thu 01:14:48 PM 41.5267 -90.6572 270° West 382 440 43,000  Level Chicago Center
Thu 01:15:50 PM 41.5256 -90.7961 269° West 377 434 43,000  Level Chicago Center
Thu 01:16:52 PM 41.5244 -90.9592 270° West 374 430 43,000  Level Chicago Center
Thu 01:17:53 PM 41.5236 -91.0994 270° West 373 429 43,000  Level Chicago Center
Thu 01:18:55 PM 41.5219 -91.2378 269° West 374 430 43,000  Level Chicago Center
Thu 01:19:57 PM 41.5219 -91.3775 270° West 376 433 43,000  Level Chicago Center
Thu 01:20:58 PM 41.5200 -91.5175 269° West 378 435 43,000  Level Chicago Center
Thu 01:22:00 PM 41.5186 -91.6572 269° West 377 434 43,000  Level Chicago Center
Thu 01:23:02 PM 41.5136 -91.7981 267° West 380 437 43,000  Level Chicago Center
Thu 01:24:03 PM 41.5083 -91.9375 267° West 378 435 43,000  Level Chicago Center
Thu 01:25:05 PM 41.5028 -92.1069 268° West 382 440 43,000  Level Chicago Center
Thu 01:26:07 PM 41.4989 -92.2458 268° West 378 435 43,000  Level Chicago Center
Thu 01:27:09 PM 41.4933 -92.3831 267° West 375 432 43,000  Level Chicago Center
Thu 01:28:10 PM 41.4864 -92.5214 266° West 376 433 43,000  Level Chicago Center
Thu 01:29:12 PM 41.4817 -92.6556 267° West 370 426 43,000  Level Chicago Center
Thu 01:30:27 PM 41.4750 -92.8244 267° West 376 433 43,000  Level Minneapolis Center
Thu 01:31:28 PM 41.4678 -92.9883 267° West 373 429 43,000  Level Minneapolis Center
Thu 01:32:30 PM 41.4611 -93.1275 266° West 375 432 43,000  Level Minneapolis Center
Thu 01:33:32 PM 41.4558 -93.2681 267° West 380 437 43,000  Level Minneapolis Center
Thu 01:34:34 PM 41.4492 -93.4083 266° West 381 438 43,000  Level Minneapolis Center
Thu 01:35:35 PM 41.4425 -93.5469 266° West 380 437 43,000  Level Minneapolis Center
Thu 01:36:37 PM 41.4369 -93.6864 267° West 380 437 43,000  Level Minneapolis Center
Thu 01:37:39 PM 41.4403 -93.8556 272° West 383 441 43,000  Level Minneapolis Center
Thu 01:38:41 PM 41.4400 -93.9961 270° West 383 441 43,000  Level Minneapolis Center
Thu 01:39:43 PM 41.4403 -94.1369 270° West 383 441 43,000  Level Minneapolis Center
Thu 01:40:45 PM 41.4411 -94.2856 270° West 383 441 43,000  Level Minneapolis Center
Thu 01:41:47 PM 41.4417 -94.4278 270° West 385 443 43,000  Level Minneapolis Center
Thu 01:42:48 PM 41.4411 -94.5717 270° West 387 445 43,000  Level Minneapolis Center
Thu 01:43:50 PM 41.4403 -94.7156 270° West 389 448 43,000  Level Minneapolis Center
Thu 01:44:52 PM 41.4400 -94.8889 270° West 390 449 43,000  Level Minneapolis Center
Thu 01:45:54 PM 41.4397 -95.0328 270° West 388 447 43,000  Level Minneapolis Center
Thu 01:46:55 PM 41.4389 -95.1778 270° West 392 451 43,000  Level Minneapolis Center
Thu 01:47:57 PM 41.4372 -95.3219 269° West 391 450 43,000  Level Minneapolis Center
Thu 01:48:59 PM 41.4356 -95.4678 269° West 393 452 43,000  Level Minneapolis Center
Thu 01:50:01 PM 41.4342 -95.6128 269° West 393 452 43,000  Level Minneapolis Center
Thu 01:51:02 PM 41.4336 -95.7772 270° West 394 453 43,000  Level Minneapolis Center
Thu 01:52:04 PM 41.4314 -95.9236 269° West 394 453 43,000  Level Minneapolis Center
Thu 01:53:06 PM 41.4303 -96.0697 269° West 395 455 43,000  Level Minneapolis Center
Thu 01:54:08 PM 41.4289 -96.2153 269° West 393 452 43,000  Level Minneapolis Center
Thu 01:55:10 PM 41.4258 -96.3586 268° West 393 452 43,000  Level Minneapolis Center
Thu 01:56:11 PM 41.4225 -96.5303 269° West 390 449 43,000  Level Minneapolis Center
Thu 01:57:13 PM 41.4194 -96.6753 268° West 391 450 43,000  Level Minneapolis Center
Thu 01:58:15 PM 41.4167 -96.8203 269° West 392 451 43,000  Level Minneapolis Center
Thu 01:59:17 PM 41.4131 -96.9647 268° West 391 450 43,000  Level Minneapolis Center
Thu 02:00:18 PM 41.4100 -97.1094 268° West 391 450 43,000  Level Minneapolis Center
Thu 02:01:20 PM 41.4058 -97.2539 268° West 391 450 43,000  Level Minneapolis Center
Thu 02:02:22 PM 41.4028 -97.3989 268° West 391 450 43,000  Level Minneapolis Center
Thu 02:03:24 PM 41.3994 -97.5436 268° West 393 452 43,000  Level Minneapolis Center
Thu 02:04:25 PM 41.3942 -97.7178 268° West 392 451 43,000  Level Minneapolis Center
Thu 02:05:27 PM 41.3903 -97.8619 268° West 391 450 43,000  Level Minneapolis Center
Thu 02:06:29 PM 41.3864 -98.0061 268° West 389 448 43,000  Level Minneapolis Center
Thu 02:07:31 PM 41.3822 -98.1567 268° West 393 452 43,000  Level Minneapolis Center
Thu 02:08:32 PM 41.3769 -98.3025 267° West 395 455 43,000  Level Minneapolis Center
Thu 02:09:34 PM 41.3714 -98.4481 267° West 395 455 43,000  Level Minneapolis Center
Thu 02:10:36 PM 41.3669 -98.5889 268° West 394 453 43,000  Level Minneapolis Center
Thu 02:11:38 PM 41.3592 -98.7633 267° West 393 452 43,000  Level Minneapolis Center
Thu 02:12:39 PM 41.3519 -98.9086 266° West 394 453 43,000  Level Minneapolis Center
Thu 02:13:41 PM 41.3447 -99.0539 266° West 394 453 43,000  Level Minneapolis Center
Thu 02:14:13 PM 41.3408 -99.1372 266° West 392 451 43,000  Level Denver Center
Thu 02:15:15 PM 41.3344 -99.2839 267° West 396 456 43,000  Level Denver Center
Thu 02:16:17 PM 41.3264 -99.4381 266° West 391 450 43,000  Level Denver Center
Thu 02:17:19 PM 41.3200 -99.5764 267° West 392 451 43,000  Level Denver Center
Thu 02:18:33 PM 41.3114 -99.7364 266° West 390 449 43,000  Level Denver Center
Thu 02:19:35 PM 41.3031 -99.8953 266° West 387 445 43,000  Level Denver Center
Thu 02:20:37 PM 41.2947 -100.0581 266° West 393 452 43,000  Level Denver Center
Thu 02:21:39 PM 41.2869 -100.1956 266° West 392 451 43,000  Level Denver Center
Thu 02:22:41 PM 41.2775 -100.3558 266° West 392 451 43,000  Level Denver Center
Thu 02:23:43 PM 41.2694 -100.4933 266° West 392 451 43,000  Level Denver Center
Thu 02:24:45 PM 41.2606 -100.6531 266° West 391 450 43,000  Level Denver Center
Thu 02:25:59 PM 41.2522 -100.7903 265° West 392 451 43,000  Level Denver Center
Thu 02:27:01 PM 41.2414 -100.9506 265° West 394 453 43,000  Level Denver Center
Thu 02:28:03 PM 41.2311 -101.1328 266° West 391 450 43,000  Level Denver Center
Thu 02:29:05 PM 41.2233 -101.2689 266° West 389 448 43,000  Level Denver Center
Thu 02:30:07 PM 41.2147 -101.4061 265° West 391 450 43,000  Level Denver Center
Thu 02:31:09 PM 41.2031 -101.5675 265° West 394 453 43,000  Level Denver Center
Thu 02:32:10 PM 41.1933 -101.7067 265° West 396 456 43,000  Level Denver Center
Thu 02:33:12 PM 41.1822 -101.8689 265° West 397 457 43,000  Level Denver Center
Thu 02:34:14 PM 41.1725 -102.0094 265° West 399 459 43,000  Level Denver Center
Thu 02:35:16 PM 41.1594 -102.1739 264° West 401 461 43,000  Level Denver Center
Thu 02:36:18 PM 41.1492 -102.3136 264° West 399 459 43,000  Level Denver Center
Thu 02:37:20 PM 41.1361 -102.4775 264° West 400 460 43,000  Level Denver Center
Thu 02:38:21 PM 41.1239 -102.6161 263° West 398 458 43,000  Level Denver Center
Thu 02:39:23 PM 41.1122 -102.7814 265° West 401 461 43,000  Level Denver Center
Thu 02:40:25 PM 41.1008 -102.9214 264° West 401 461 43,000  Level Denver Center
Thu 02:41:27 PM 41.0831 -103.0608 260° West 400 460 43,000  Level Denver Center
Thu 02:42:29 PM 41.0517 -103.2194 255° West 399 459 43,000  Level Denver Center
Thu 02:43:31 PM 41.0267 -103.3553 256° West 395 455 43,000  Level Denver Center
Thu 02:44:33 PM 40.9975 -103.5161 257° West 402 463 43,000  Level Denver Center
Thu 02:45:35 PM 40.9681 -103.6656 255° West 400 460 43,000  Level Denver Center
Thu 02:46:36 PM 40.9408 -103.8061 256° West 397 457 43,000  Level Denver Center
Thu 02:47:38 PM 40.9144 -103.9461 256° West 395 455 43,000  Level Denver Center
Thu 02:48:40 PM 40.8878 -104.0867 256° West 395 455 43,000  Level Denver Center
Thu 02:49:42 PM 40.8594 -104.2281 255° West 398 458 43,000  Level Denver Center
Thu 02:50:44 PM 40.8314 -104.3683 255° West 397 457 43,000 -194 Level Denver Center
Thu 02:51:46 PM 40.7981 -104.5347 255° West 394 453 42,600 -677 Descending Denver Center
Thu 02:52:48 PM 40.7706 -104.6756 256° West 397 457 41,600 -1,016 Descending Denver Center
Thu 02:53:50 PM 40.7425 -104.8161 255° West 398 458 40,500 -1,161 Descending Denver Center
Thu 02:54:52 PM 40.7136 -104.9581 255° West 402 463 39,200 -1,512 Descending Denver Center
Thu 02:55:53 PM 40.6842 -105.1006 255° West 405 466 37,400 -1,756 Descending Denver Center
Thu 02:56:55 PM 40.6556 -105.2433 255° West 405 466 35,600 -1,984 Descending Denver Center
Thu 02:57:57 PM 40.6228 -105.3967 254° West 370 426 33,300 -2,032 Descending Denver Center
Thu 02:58:59 PM 40.5972 -105.5250 255° West 364 419 31,400 -1,790 Descending Denver Center
Thu 03:00:01 PM 40.5681 -105.6600 254° West 380 437 29,600 -1,790 Descending Denver Center
Thu 03:01:03 PM 40.5397 -105.7856 253° West 368 423 27,700 -1,597 Descending Denver Center
Thu 03:02:05 PM 40.5186 -105.8919 255° West 310 357 26,300 -1,306 Descending Denver Center
Thu 03:03:07 PM 40.4981 -105.9886 254° West 280 322 25,000 -1,403 Descending Denver Center
Thu 03:04:09 PM 40.4731 -106.1069 255° West 282 325 23,400 -1,548 Descending Denver Center
Thu 03:05:11 PM 40.4506 -106.2133 255° West 288 331 21,800 -1,403 Descending Denver Center
Thu 03:06:13 PM 40.4325 -106.2947 254° West 276 318 20,500 -871 Descending Denver Center
Thu 03:07:15 PM 40.4125 -106.3869 254° West 267 307 20,000 -1,113 Descending Denver Center
Thu 03:08:17 PM 40.4039 -106.5011 264° West 263 303 18,200 -1,790 Descending Denver Center
Thu 03:09:19 PM 40.3969 -106.5942 264° West 259 298 16,300 -1,500 Descending Denver Center
Thu 03:10:21 PM 40.3933 -106.6839 267° West 251 289 15,100 -585 Descending Denver Center
Thu 03:11:22 PM 40.3906 -106.7675 268° West 238 274 15,100  Level Denver Center
Thu 03:12:24 PM 40.3889 -106.8658 269° West 240 276 15,100  Level Denver Center
Thu 03:13:26 PM 40.3839 -106.9522 266° West 246 283 15,100 -48 Level Denver Center
Thu 03:14:28 PM 40.3806 -107.0506 267° West 243 280 15,000 -484 Descending Denver Center
Thu 03:15:30 PM 40.3928 -107.1292 282° West 233 268 14,100 -435 Descending Denver Center
Thu 03:16:32 PM 40.4031 -107.1897 283° West 223 257 14,100 -387 Level Denver Center
Thu 03:17:34 PM 40.4167 -107.2817 281° West 206 237 13,300 -1,355 Descending Denver Center
Thu 03:18:36 PM 40.4292 -107.3658 281° West 209 241 11,300 -1,355 Descending Denver Center
Thu 03:19:38 PM 40.4528 -107.4228 299° West 187 215 10,500 -968 Descending Denver Center
Thu 03:20:40 PM 40.4919 -107.3864 35° Northeast 202 232 9,300 -1,016 Descending Denver Center
Thu 03:21:42 PM 40.5017 -107.3178 79° East 196 226 8,400 -1,065 Descending Denver Center
Thu 03:22:44 PM 40.4950 -107.2625 99° East 172 198 7,100 -878 Descending Denver Center
Thu 03:23:45 PM 40.4817 -107.2183 112° Southeast 147 169 6,600 -492 Descending Denver Center

Login

Don't have an account? Register now (free) for customized features, flight alerts, and more!